sensor_id;sensor_type;location;lat;lon;timestamp;P1;durP1;ratioP1;P2;durP2;ratioP2
16689;SDS011;8458;52.220;9.884;2022-07-12T00:02:12;0.90;;;0.90;;
16689;SDS011;8458;52.220;9.884;2022-07-12T00:04:38;0.90;;;0.90;;
16689;SDS011;8458;52.220;9.884;2022-07-12T00:07:05;1.07;;;1.00;;
16689;SDS011;8458;52.220;9.884;2022-07-12T00:09:33;0.97;;;0.97;;
16689;SDS011;8458;52.220;9.884;2022-07-12T00:11:59;1.07;;;1.00;;
16689;SDS011;8458;52.220;9.884;2022-07-12T00:14:26;1.60;;;1.00;;
16689;SDS011;8458;52.220;9.884;2022-07-12T00:16:52;1.20;;;1.10;;
16689;SDS011;8458;52.220;9.884;2022-07-12T00:19:19;1.07;;;1.07;;
16689;SDS011;8458;52.220;9.884;2022-07-12T00:21:46;1.30;;;1.20;;
16689;SDS011;8458;52.220;9.884;2022-07-12T00:24:12;1.00;;;1.00;;
16689;SDS011;8458;52.220;9.884;2022-07-12T00:26:40;1.30;;;1.07;;
16689;SDS011;8458;52.220;9.884;2022-07-12T00:29:07;1.10;;;1.00;;
16689;SDS011;8458;52.220;9.884;2022-07-12T00:31:33;1.30;;;1.20;;
16689;SDS011;8458;52.220;9.884;2022-07-12T00:34:00;1.50;;;1.40;;
16689;SDS011;8458;52.220;9.884;2022-07-12T00:36:26;1.40;;;1.30;;
16689;SDS011;8458;52.220;9.884;2022-07-12T00:38:53;1.30;;;1.30;;
16689;SDS011;8458;52.220;9.884;2022-07-12T00:41:20;1.63;;;1.53;;
16689;SDS011;8458;52.220;9.884;2022-07-12T00:43:48;1.63;;;1.53;;
16689;SDS011;8458;52.220;9.884;2022-07-12T00:46:14;1.87;;;1.77;;
16689;SDS011;8458;52.220;9.884;2022-07-12T00:48:47;1.70;;;1.60;;
16689;SDS011;8458;52.220;9.884;2022-07-12T00:51:13;2.97;;;1.70;;
16689;SDS011;8458;52.220;9.884;2022-07-12T00:53:40;1.70;;;1.60;;
16689;SDS011;8458;52.220;9.884;2022-07-12T00:56:07;1.63;;;1.53;;
16689;SDS011;8458;52.220;9.884;2022-07-12T00:58:33;1.63;;;1.50;;
16689;SDS011;8458;52.220;9.884;2022-07-12T01:01:01;1.50;;;1.40;;
16689;SDS011;8458;52.220;9.884;2022-07-12T01:03:28;1.67;;;1.57;;
16689;SDS011;8458;52.220;9.884;2022-07-12T01:05:54;1.77;;;1.50;;
16689;SDS011;8458;52.220;9.884;2022-07-12T01:08:21;1.57;;;1.47;;
16689;SDS011;8458;52.220;9.884;2022-07-12T01:10:49;1.83;;;1.73;;
16689;SDS011;8458;52.220;9.884;2022-07-12T01:13:16;1.70;;;1.50;;
16689;SDS011;8458;52.220;9.884;2022-07-12T01:15:43;1.60;;;1.50;;
16689;SDS011;8458;52.220;9.884;2022-07-12T01:18:12;1.77;;;1.67;;
16689;SDS011;8458;52.220;9.884;2022-07-12T01:20:40;2.17;;;1.97;;
16689;SDS011;8458;52.220;9.884;2022-07-12T01:23:08;1.83;;;1.73;;
16689;SDS011;8458;52.220;9.884;2022-07-12T01:25:35;2.43;;;1.90;;
16689;SDS011;8458;52.220;9.884;2022-07-12T01:28:02;3.53;;;2.10;;
16689;SDS011;8458;52.220;9.884;2022-07-12T01:30:30;4.70;;;2.30;;
16689;SDS011;8458;52.220;9.884;2022-07-12T01:32:56;5.83;;;2.17;;
16689;SDS011;8458;52.220;9.884;2022-07-12T01:35:25;5.87;;;1.90;;
16689;SDS011;8458;52.220;9.884;2022-07-12T01:37:51;9.03;;;2.03;;
16689;SDS011;8458;52.220;9.884;2022-07-12T01:40:19;11.27;;;2.37;;
16689;SDS011;8458;52.220;9.884;2022-07-12T01:42:46;7.40;;;2.33;;
16689;SDS011;8458;52.220;9.884;2022-07-12T01:45:14;6.13;;;2.20;;
16689;SDS011;8458;52.220;9.884;2022-07-12T01:47:41;4.40;;;2.00;;
16689;SDS011;8458;52.220;9.884;2022-07-12T01:50:07;8.80;;;2.13;;
16689;SDS011;8458;52.220;9.884;2022-07-12T01:52:35;6.23;;;2.00;;
16689;SDS011;8458;52.220;9.884;2022-07-12T01:55:02;12.57;;;2.23;;
16689;SDS011;8458;52.220;9.884;2022-07-12T01:57:31;6.63;;;2.03;;
16689;SDS011;8458;52.220;9.884;2022-07-12T01:59:58;12.33;;;2.10;;
16689;SDS011;8458;52.220;9.884;2022-07-12T02:02:26;6.27;;;2.17;;
16689;SDS011;8458;52.220;9.884;2022-07-12T02:04:53;11.83;;;2.63;;
16689;SDS011;8458;52.220;9.884;2022-07-12T02:07:20;10.20;;;2.30;;
16689;SDS011;8458;52.220;9.884;2022-07-12T02:09:47;2.97;;;2.17;;
16689;SDS011;8458;52.220;9.884;2022-07-12T02:12:14;4.50;;;1.87;;
16689;SDS011;8458;52.220;9.884;2022-07-12T02:14:41;4.07;;;2.10;;
16689;SDS011;8458;52.220;9.884;2022-07-12T02:17:08;3.53;;;2.07;;
16689;SDS011;8458;52.220;9.884;2022-07-12T02:19:34;6.17;;;2.50;;
16689;SDS011;8458;52.220;9.884;2022-07-12T02:22:01;5.27;;;2.17;;
16689;SDS011;8458;52.220;9.884;2022-07-12T02:24:28;5.10;;;2.30;;
16689;SDS011;8458;52.220;9.884;2022-07-12T02:26:54;4.70;;;2.17;;
16689;SDS011;8458;52.220;9.884;2022-07-12T02:29:21;5.47;;;2.40;;
16689;SDS011;8458;52.220;9.884;2022-07-12T02:31:49;6.07;;;2.03;;
16689;SDS011;8458;52.220;9.884;2022-07-12T02:34:16;3.33;;;2.10;;
16689;SDS011;8458;52.220;9.884;2022-07-12T02:36:42;4.13;;;1.97;;
16689;SDS011;8458;52.220;9.884;2022-07-12T02:39:09;5.57;;;2.80;;
16689;SDS011;8458;52.220;9.884;2022-07-12T02:41:36;5.30;;;2.43;;
16689;SDS011;8458;52.220;9.884;2022-07-12T02:44:03;5.47;;;2.13;;
16689;SDS011;8458;52.220;9.884;2022-07-12T02:46:30;5.27;;;2.53;;
16689;SDS011;8458;52.220;9.884;2022-07-12T02:48:58;5.47;;;2.20;;
16689;SDS011;8458;52.220;9.884;2022-07-12T02:51:24;4.37;;;2.03;;
16689;SDS011;8458;52.220;9.884;2022-07-12T02:53:51;4.53;;;2.30;;
16689;SDS011;8458;52.220;9.884;2022-07-12T02:56:17;5.17;;;2.40;;
16689;SDS011;8458;52.220;9.884;2022-07-12T02:58:44;9.50;;;2.60;;
16689;SDS011;8458;52.220;9.884;2022-07-12T03:01:10;8.80;;;2.07;;
16689;SDS011;8458;52.220;9.884;2022-07-12T03:03:38;8.20;;;2.17;;
16689;SDS011;8458;52.220;9.884;2022-07-12T03:06:06;14.53;;;2.43;;
16689;SDS011;8458;52.220;9.884;2022-07-12T03:08:32;4.00;;;2.03;;
16689;SDS011;8458;52.220;9.884;2022-07-12T03:10:59;5.43;;;2.43;;
16689;SDS011;8458;52.220;9.884;2022-07-12T03:13:25;3.17;;;1.90;;
16689;SDS011;8458;52.220;9.884;2022-07-12T03:15:52;4.00;;;2.10;;
16689;SDS011;8458;52.220;9.884;2022-07-12T03:18:18;4.53;;;1.90;;
16689;SDS011;8458;52.220;9.884;2022-07-12T03:20:45;4.87;;;2.10;;
16689;SDS011;8458;52.220;9.884;2022-07-12T03:23:12;2.83;;;1.93;;
16689;SDS011;8458;52.220;9.884;2022-07-12T03:25:39;3.53;;;1.77;;
16689;SDS011;8458;52.220;9.884;2022-07-12T03:28:05;4.80;;;2.10;;
16689;SDS011;8458;52.220;9.884;2022-07-12T03:30:32;2.73;;;2.07;;
16689;SDS011;8458;52.220;9.884;2022-07-12T03:32:58;4.80;;;2.30;;
16689;SDS011;8458;52.220;9.884;2022-07-12T03:35:25;4.03;;;1.70;;
16689;SDS011;8458;52.220;9.884;2022-07-12T03:37:52;5.77;;;1.60;;
16689;SDS011;8458;52.220;9.884;2022-07-12T03:40:20;5.43;;;1.90;;
16689;SDS011;8458;52.220;9.884;2022-07-12T03:42:48;5.47;;;2.07;;
16689;SDS011;8458;52.220;9.884;2022-07-12T03:45:15;7.90;;;2.30;;
16689;SDS011;8458;52.220;9.884;2022-07-12T03:47:42;7.67;;;2.10;;
16689;SDS011;8458;52.220;9.884;2022-07-12T03:50:10;7.13;;;2.20;;
16689;SDS011;8458;52.220;9.884;2022-07-12T03:52:39;3.63;;;2.03;;
16689;SDS011;8458;52.220;9.884;2022-07-12T03:55:07;10.47;;;3.03;;
16689;SDS011;8458;52.220;9.884;2022-07-12T03:57:35;6.70;;;2.20;;
16689;SDS011;8458;52.220;9.884;2022-07-12T04:00:03;8.27;;;3.03;;
16689;SDS011;8458;52.220;9.884;2022-07-12T04:02:31;7.97;;;2.53;;
16689;SDS011;8458;52.220;9.884;2022-07-12T04:04:58;7.10;;;2.20;;
16689;SDS011;8458;52.220;9.884;2022-07-12T04:07:24;10.93;;;2.17;;
16689;SDS011;8458;52.220;9.884;2022-07-12T04:09:51;5.60;;;2.20;;
16689;SDS011;8458;52.220;9.884;2022-07-12T04:12:17;7.37;;;2.83;;
16689;SDS011;8458;52.220;9.884;2022-07-12T04:14:46;4.73;;;2.07;;
16689;SDS011;8458;52.220;9.884;2022-07-12T04:17:12;4.87;;;2.33;;
16689;SDS011;8458;52.220;9.884;2022-07-12T04:19:39;5.03;;;2.70;;
16689;SDS011;8458;52.220;9.884;2022-07-12T04:22:05;2.67;;;2.20;;
16689;SDS011;8458;52.220;9.884;2022-07-12T04:24:32;4.10;;;2.43;;
16689;SDS011;8458;52.220;9.884;2022-07-12T04:26:59;3.63;;;2.13;;
16689;SDS011;8458;52.220;9.884;2022-07-12T04:29:25;3.00;;;2.40;;
16689;SDS011;8458;52.220;9.884;2022-07-12T04:31:53;5.80;;;2.97;;
16689;SDS011;8458;52.220;9.884;2022-07-12T04:34:20;5.17;;;2.50;;
16689;SDS011;8458;52.220;9.884;2022-07-12T04:36:46;3.27;;;2.70;;
16689;SDS011;8458;52.220;9.884;2022-07-12T04:39:14;4.93;;;2.57;;
16689;SDS011;8458;52.220;9.884;2022-07-12T04:41:41;5.33;;;3.00;;
16689;SDS011;8458;52.220;9.884;2022-07-12T04:44:07;2.73;;;2.20;;
16689;SDS011;8458;52.220;9.884;2022-07-12T04:46:34;3.60;;;2.50;;
16689;SDS011;8458;52.220;9.884;2022-07-12T04:49:02;2.67;;;2.30;;
16689;SDS011;8458;52.220;9.884;2022-07-12T04:51:28;2.83;;;2.63;;
16689;SDS011;8458;52.220;9.884;2022-07-12T04:53:55;4.17;;;2.30;;
16689;SDS011;8458;52.220;9.884;2022-07-12T04:56:21;3.43;;;2.70;;
16689;SDS011;8458;52.220;9.884;2022-07-12T04:58:48;4.43;;;3.00;;
16689;SDS011;8458;52.220;9.884;2022-07-12T05:01:14;3.67;;;3.00;;
16689;SDS011;8458;52.220;9.884;2022-07-12T05:03:41;4.33;;;2.80;;
16689;SDS011;8458;52.220;9.884;2022-07-12T05:06:09;10.03;;;2.87;;
16689;SDS011;8458;52.220;9.884;2022-07-12T05:08:36;3.37;;;3.00;;
16689;SDS011;8458;52.220;9.884;2022-07-12T05:11:02;4.03;;;2.90;;
16689;SDS011;8458;52.220;9.884;2022-07-12T05:13:29;4.20;;;3.20;;
16689;SDS011;8458;52.220;9.884;2022-07-12T05:15:55;3.37;;;3.00;;
16689;SDS011;8458;52.220;9.884;2022-07-12T05:18:22;6.30;;;2.90;;
16689;SDS011;8458;52.220;9.884;2022-07-12T05:20:49;5.57;;;2.97;;
16689;SDS011;8458;52.220;9.884;2022-07-12T05:23:17;3.63;;;2.93;;
16689;SDS011;8458;52.220;9.884;2022-07-12T05:25:43;3.27;;;2.90;;
16689;SDS011;8458;52.220;9.884;2022-07-12T05:28:10;3.63;;;3.20;;
16689;SDS011;8458;52.220;9.884;2022-07-12T05:30:37;6.20;;;3.53;;
16689;SDS011;8458;52.220;9.884;2022-07-12T05:33:04;4.97;;;3.27;;
16689;SDS011;8458;52.220;9.884;2022-07-12T05:35:30;5.00;;;3.73;;
16689;SDS011;8458;52.220;9.884;2022-07-12T05:37:57;6.23;;;3.07;;
16689;SDS011;8458;52.220;9.884;2022-07-12T05:40:25;5.67;;;3.20;;
16689;SDS011;8458;52.220;9.884;2022-07-12T05:42:51;3.20;;;3.00;;
16689;SDS011;8458;52.220;9.884;2022-07-12T05:45:17;3.43;;;3.07;;
16689;SDS011;8458;52.220;9.884;2022-07-12T05:47:44;2.77;;;2.57;;
16689;SDS011;8458;52.220;9.884;2022-07-12T05:50:11;5.53;;;2.70;;
16689;SDS011;8458;52.220;9.884;2022-07-12T05:52:37;4.87;;;3.23;;
16689;SDS011;8458;52.220;9.884;2022-07-12T05:55:22;5.93;;;3.33;;
16689;SDS011;8458;52.220;9.884;2022-07-12T05:57:49;6.53;;;3.30;;
16689;SDS011;8458;52.220;9.884;2022-07-12T06:00:16;2.90;;;2.70;;
16689;SDS011;8458;52.220;9.884;2022-07-12T06:02:43;3.53;;;3.33;;
16689;SDS011;8458;52.220;9.884;2022-07-12T06:05:09;4.10;;;3.50;;
16689;SDS011;8458;52.220;9.884;2022-07-12T06:07:36;3.30;;;3.10;;
16689;SDS011;8458;52.220;9.884;2022-07-12T06:10:02;3.73;;;3.43;;
16689;SDS011;8458;52.220;9.884;2022-07-12T06:12:29;3.67;;;3.23;;
16689;SDS011;8458;52.220;9.884;2022-07-12T06:14:57;4.13;;;3.40;;
16689;SDS011;8458;52.220;9.884;2022-07-12T06:17:24;3.57;;;3.27;;
16689;SDS011;8458;52.220;9.884;2022-07-12T06:19:50;2.90;;;2.70;;
16689;SDS011;8458;52.220;9.884;2022-07-12T06:22:17;2.87;;;2.67;;
16689;SDS011;8458;52.220;9.884;2022-07-12T06:24:46;3.17;;;2.87;;
16689;SDS011;8458;52.220;9.884;2022-07-12T06:27:12;3.00;;;2.33;;
16689;SDS011;8458;52.220;9.884;2022-07-12T06:29:39;4.97;;;2.60;;
16689;SDS011;8458;52.220;9.884;2022-07-12T06:32:07;2.40;;;2.20;;
16689;SDS011;8458;52.220;9.884;2022-07-12T06:34:36;2.57;;;2.37;;
16689;SDS011;8458;52.220;9.884;2022-07-12T06:37:03;2.60;;;2.40;;
16689;SDS011;8458;52.220;9.884;2022-07-12T06:39:33;2.40;;;2.30;;
16689;SDS011;8458;52.220;9.884;2022-07-12T06:41:59;2.60;;;2.40;;
16689;SDS011;8458;52.220;9.884;2022-07-12T06:44:28;2.20;;;2.10;;
16689;SDS011;8458;52.220;9.884;2022-07-12T06:46:55;2.23;;;2.03;;
16689;SDS011;8458;52.220;9.884;2022-07-12T06:49:23;2.10;;;2.00;;
16689;SDS011;8458;52.220;9.884;2022-07-12T06:51:49;2.07;;;1.97;;
16689;SDS011;8458;52.220;9.884;2022-07-12T06:54:16;2.33;;;1.97;;
16689;SDS011;8458;52.220;9.884;2022-07-12T06:56:43;2.07;;;1.87;;
16689;SDS011;8458;52.220;9.884;2022-07-12T06:59:09;2.10;;;1.90;;
16689;SDS011;8458;52.220;9.884;2022-07-12T07:01:36;2.93;;;2.00;;
16689;SDS011;8458;52.220;9.884;2022-07-12T07:04:03;2.30;;;2.10;;
16689;SDS011;8458;52.220;9.884;2022-07-12T07:06:31;2.10;;;2.00;;
16689;SDS011;8458;52.220;9.884;2022-07-12T07:08:57;2.30;;;2.20;;
16689;SDS011;8458;52.220;9.884;2022-07-12T07:11:24;2.03;;;1.80;;
16689;SDS011;8458;52.220;9.884;2022-07-12T07:13:51;1.80;;;1.70;;
16689;SDS011;8458;52.220;9.884;2022-07-12T07:16:18;1.90;;;1.80;;
16689;SDS011;8458;52.220;9.884;2022-07-12T07:18:47;1.80;;;1.70;;
16689;SDS011;8458;52.220;9.884;2022-07-12T07:21:13;1.87;;;1.70;;
16689;SDS011;8458;52.220;9.884;2022-07-12T07:23:41;1.93;;;1.83;;
16689;SDS011;8458;52.220;9.884;2022-07-12T07:26:08;2.10;;;2.00;;
16689;SDS011;8458;52.220;9.884;2022-07-12T07:28:35;2.10;;;2.00;;
16689;SDS011;8458;52.220;9.884;2022-07-12T07:31:21;3.30;;;2.40;;
16689;SDS011;8458;52.220;9.884;2022-07-12T07:33:47;1.80;;;1.70;;
16689;SDS011;8458;52.220;9.884;2022-07-12T07:36:13;2.10;;;1.90;;
16689;SDS011;8458;52.220;9.884;2022-07-12T07:38:41;1.70;;;1.60;;
16689;SDS011;8458;52.220;9.884;2022-07-12T07:41:08;1.80;;;1.70;;
16689;SDS011;8458;52.220;9.884;2022-07-12T07:43:34;2.40;;;2.20;;
16689;SDS011;8458;52.220;9.884;2022-07-12T07:46:01;2.07;;;1.97;;
16689;SDS011;8458;52.220;9.884;2022-07-12T07:48:27;1.90;;;1.80;;
16689;SDS011;8458;52.220;9.884;2022-07-12T07:50:54;1.87;;;1.77;;
16689;SDS011;8458;52.220;9.884;2022-07-12T07:53:20;1.77;;;1.67;;
16689;SDS011;8458;52.220;9.884;2022-07-12T07:55:48;2.77;;;2.00;;
16689;SDS011;8458;52.220;9.884;2022-07-12T07:58:15;1.77;;;1.67;;
16689;SDS011;8458;52.220;9.884;2022-07-12T08:00:42;1.40;;;1.40;;
16689;SDS011;8458;52.220;9.884;2022-07-12T08:03:08;1.70;;;1.60;;
16689;SDS011;8458;52.220;9.884;2022-07-12T08:05:35;1.50;;;1.40;;
16689;SDS011;8458;52.220;9.884;2022-07-12T08:08:01;2.00;;;1.90;;
16689;SDS011;8458;52.220;9.884;2022-07-12T08:10:28;1.80;;;1.70;;
16689;SDS011;8458;52.220;9.884;2022-07-12T08:12:56;1.90;;;1.80;;
16689;SDS011;8458;52.220;9.884;2022-07-12T08:15:23;2.20;;;2.00;;
16689;SDS011;8458;52.220;9.884;2022-07-12T08:17:49;2.07;;;1.60;;
16689;SDS011;8458;52.220;9.884;2022-07-12T08:20:16;1.87;;;1.77;;
16689;SDS011;8458;52.220;9.884;2022-07-12T08:22:43;1.60;;;1.50;;
16689;SDS011;8458;52.220;9.884;2022-07-12T08:25:11;1.30;;;1.30;;
16689;SDS011;8458;52.220;9.884;2022-07-12T08:27:38;2.07;;;1.97;;
16689;SDS011;8458;52.220;9.884;2022-07-12T08:30:07;1.83;;;1.73;;
16689;SDS011;8458;52.220;9.884;2022-07-12T08:32:34;2.87;;;2.67;;
16689;SDS011;8458;52.220;9.884;2022-07-12T08:35:00;2.50;;;2.40;;
16689;SDS011;8458;52.220;9.884;2022-07-12T08:37:27;2.80;;;2.60;;
16689;SDS011;8458;52.220;9.884;2022-07-12T08:39:55;2.30;;;2.20;;
16689;SDS011;8458;52.220;9.884;2022-07-12T08:42:21;2.07;;;1.97;;
16689;SDS011;8458;52.220;9.884;2022-07-12T08:44:53;2.60;;;2.50;;
16689;SDS011;8458;52.220;9.884;2022-07-12T08:47:21;2.20;;;2.10;;
16689;SDS011;8458;52.220;9.884;2022-07-12T08:52:37;2.20;;;2.10;;
16689;SDS011;8458;52.220;9.884;2022-07-12T08:55:15;2.07;;;1.97;;
16689;SDS011;8458;52.220;9.884;2022-07-12T08:57:43;2.13;;;2.03;;
16689;SDS011;8458;52.220;9.884;2022-07-12T09:00:10;2.03;;;1.93;;
16689;SDS011;8458;52.220;9.884;2022-07-12T09:02:45;2.20;;;2.10;;
16689;SDS011;8458;52.220;9.884;2022-07-12T09:05:14;2.60;;;2.50;;
16689;SDS011;8458;52.220;9.884;2022-07-12T09:07:41;2.73;;;2.60;;
16689;SDS011;8458;52.220;9.884;2022-07-12T09:10:09;2.50;;;2.40;;
16689;SDS011;8458;52.220;9.884;2022-07-12T09:12:36;2.30;;;2.10;;
16689;SDS011;8458;52.220;9.884;2022-07-12T09:15:10;2.70;;;2.50;;
16689;SDS011;8458;52.220;9.884;2022-07-12T09:17:38;2.60;;;2.50;;
16689;SDS011;8458;52.220;9.884;2022-07-12T09:20:06;2.37;;;2.27;;
16689;SDS011;8458;52.220;9.884;2022-07-12T09:22:35;2.10;;;2.00;;
16689;SDS011;8458;52.220;9.884;2022-07-12T09:25:08;2.23;;;2.13;;
16689;SDS011;8458;52.220;9.884;2022-07-12T09:27:35;2.03;;;1.93;;
16689;SDS011;8458;52.220;9.884;2022-07-12T09:30:01;2.60;;;2.50;;
16689;SDS011;8458;52.220;9.884;2022-07-12T09:32:29;2.97;;;2.87;;
16689;SDS011;8458;52.220;9.884;2022-07-12T09:35:14;2.37;;;2.27;;
16689;SDS011;8458;52.220;9.884;2022-07-12T09:38:07;2.70;;;2.60;;
16689;SDS011;8458;52.220;9.884;2022-07-12T09:40:34;2.57;;;2.47;;
16689;SDS011;8458;52.220;9.884;2022-07-12T09:43:01;2.40;;;2.20;;
16689;SDS011;8458;52.220;9.884;2022-07-12T09:45:30;2.40;;;2.30;;
16689;SDS011;8458;52.220;9.884;2022-07-12T09:47:57;2.27;;;2.10;;
16689;SDS011;8458;52.220;9.884;2022-07-12T09:50:27;2.00;;;1.90;;
16689;SDS011;8458;52.220;9.884;2022-07-12T09:52:56;2.30;;;2.20;;
16689;SDS011;8458;52.220;9.884;2022-07-12T09:55:26;2.30;;;2.20;;
16689;SDS011;8458;52.220;9.884;2022-07-12T09:57:56;1.90;;;1.80;;
16689;SDS011;8458;52.220;9.884;2022-07-12T10:00:27;1.83;;;1.73;;
16689;SDS011;8458;52.220;9.884;2022-07-12T10:02:54;1.60;;;1.50;;
16689;SDS011;8458;52.220;9.884;2022-07-12T10:05:22;1.67;;;1.57;;
16689;SDS011;8458;52.220;9.884;2022-07-12T10:07:51;1.60;;;1.50;;
16689;SDS011;8458;52.220;9.884;2022-07-12T10:10:18;1.40;;;1.30;;
16689;SDS011;8458;52.220;9.884;2022-07-12T10:12:44;1.33;;;1.23;;
16689;SDS011;8458;52.220;9.884;2022-07-12T10:15:14;1.37;;;1.20;;
16689;SDS011;8458;52.220;9.884;2022-07-12T10:17:42;1.10;;;1.10;;
16689;SDS011;8458;52.220;9.884;2022-07-12T10:20:18;0.90;;;0.90;;
16689;SDS011;8458;52.220;9.884;2022-07-12T10:22:47;1.07;;;1.07;;
16689;SDS011;8458;52.220;9.884;2022-07-12T10:25:31;1.30;;;1.20;;
16689;SDS011;8458;52.220;9.884;2022-07-12T10:27:59;1.07;;;1.07;;
16689;SDS011;8458;52.220;9.884;2022-07-12T10:30:25;1.10;;;1.10;;
16689;SDS011;8458;52.220;9.884;2022-07-12T10:32:53;1.10;;;1.10;;
16689;SDS011;8458;52.220;9.884;2022-07-12T10:35:22;1.00;;;1.00;;
16689;SDS011;8458;52.220;9.884;2022-07-12T10:40:44;1.50;;;1.50;;
16689;SDS011;8458;52.220;9.884;2022-07-12T10:43:12;1.87;;;1.20;;
16689;SDS011;8458;52.220;9.884;2022-07-12T10:46:17;1.33;;;1.23;;
16689;SDS011;8458;52.220;9.884;2022-07-12T10:48:45;1.30;;;1.20;;
16689;SDS011;8458;52.220;9.884;2022-07-12T10:51:15;1.13;;;1.03;;
16689;SDS011;8458;52.220;9.884;2022-07-12T10:53:44;1.00;;;1.00;;
16689;SDS011;8458;52.220;9.884;2022-07-12T10:56:15;0.90;;;0.90;;
16689;SDS011;8458;52.220;9.884;2022-07-12T10:58:44;0.90;;;0.90;;
16689;SDS011;8458;52.220;9.884;2022-07-12T11:01:13;1.20;;;1.20;;
16689;SDS011;8458;52.220;9.884;2022-07-12T11:03:41;1.03;;;1.03;;
16689;SDS011;8458;52.220;9.884;2022-07-12T11:06:10;1.17;;;1.17;;
16689;SDS011;8458;52.220;9.884;2022-07-12T11:08:48;1.00;;;1.00;;
16689;SDS011;8458;52.220;9.884;2022-07-12T11:11:20;1.10;;;1.10;;
16689;SDS011;8458;52.220;9.884;2022-07-12T11:13:48;0.80;;;0.80;;
16689;SDS011;8458;52.220;9.884;2022-07-12T11:16:15;1.08;;;1.08;;
16689;SDS011;8458;52.220;9.884;2022-07-12T11:18:42;1.40;;;1.30;;
16689;SDS011;8458;52.220;9.884;2022-07-12T11:21:10;1.20;;;1.20;;
16689;SDS011;8458;52.220;9.884;2022-07-12T11:23:36;1.00;;;1.00;;
16689;SDS011;8458;52.220;9.884;2022-07-12T11:26:06;1.00;;;1.00;;
16689;SDS011;8458;52.220;9.884;2022-07-12T11:28:35;1.33;;;1.23;;
16689;SDS011;8458;52.220;9.884;2022-07-12T11:31:03;1.13;;;1.02;;
16689;SDS011;8458;52.220;9.884;2022-07-12T11:33:32;1.17;;;1.13;;
16689;SDS011;8458;52.220;9.884;2022-07-12T11:36:00;1.23;;;1.23;;
16689;SDS011;8458;52.220;9.884;2022-07-12T11:38:29;1.30;;;1.20;;
16689;SDS011;8458;52.220;9.884;2022-07-12T11:40:56;1.42;;;0.95;;
16689;SDS011;8458;52.220;9.884;2022-07-12T11:43:23;1.30;;;0.88;;
16689;SDS011;8458;52.220;9.884;2022-07-12T11:45:52;1.38;;;1.27;;
16689;SDS011;8458;52.220;9.884;2022-07-12T11:48:19;1.27;;;1.17;;
16689;SDS011;8458;52.220;9.884;2022-07-12T11:50:46;1.42;;;1.30;;
16689;SDS011;8458;52.220;9.884;2022-07-12T11:53:16;1.90;;;1.30;;
16689;SDS011;8458;52.220;9.884;2022-07-12T11:55:44;1.15;;;1.15;;
16689;SDS011;8458;52.220;9.884;2022-07-12T11:58:12;1.50;;;1.40;;
16689;SDS011;8458;52.220;9.884;2022-07-12T12:00:38;1.30;;;1.30;;
16689;SDS011;8458;52.220;9.884;2022-07-12T12:03:06;1.33;;;1.27;;
16689;SDS011;8458;52.220;9.884;2022-07-12T12:05:33;1.42;;;1.42;;
16689;SDS011;8458;52.220;9.884;2022-07-12T12:08:00;1.20;;;1.20;;
16689;SDS011;8458;52.220;9.884;2022-07-12T12:10:27;1.30;;;1.30;;
16689;SDS011;8458;52.220;9.884;2022-07-12T12:12:54;1.42;;;1.40;;
16689;SDS011;8458;52.220;9.884;2022-07-12T12:15:22;1.38;;;1.27;;
16689;SDS011;8458;52.220;9.884;2022-07-12T12:17:53;1.10;;;1.10;;
16689;SDS011;8458;52.220;9.884;2022-07-12T12:20:23;1.92;;;1.40;;
16689;SDS011;8458;52.220;9.884;2022-07-12T12:22:51;1.42;;;1.40;;
16689;SDS011;8458;52.220;9.884;2022-07-12T12:25:19;1.60;;;1.50;;
16689;SDS011;8458;52.220;9.884;2022-07-12T12:27:46;1.50;;;1.38;;
16689;SDS011;8458;52.220;9.884;2022-07-12T12:30:14;1.45;;;1.35;;
16689;SDS011;8458;52.220;9.884;2022-07-12T12:32:43;1.27;;;1.27;;
16689;SDS011;8458;52.220;9.884;2022-07-12T12:35:14;1.13;;;1.13;;
16689;SDS011;8458;52.220;9.884;2022-07-12T12:37:49;1.10;;;1.10;;
16689;SDS011;8458;52.220;9.884;2022-07-12T12:40:20;1.15;;;1.15;;
16689;SDS011;8458;52.220;9.884;2022-07-12T12:42:48;1.10;;;1.10;;
16689;SDS011;8458;52.220;9.884;2022-07-12T12:45:18;1.20;;;1.20;;
16689;SDS011;8458;52.220;9.884;2022-07-12T12:47:52;1.00;;;1.00;;
16689;SDS011;8458;52.220;9.884;2022-07-12T12:53:11;1.40;;;1.30;;
16689;SDS011;8458;52.220;9.884;2022-07-12T12:55:39;1.23;;;1.23;;
16689;SDS011;8458;52.220;9.884;2022-07-12T12:58:06;1.50;;;1.40;;
16689;SDS011;8458;52.220;9.884;2022-07-12T13:00:34;1.58;;;1.48;;
16689;SDS011;8458;52.220;9.884;2022-07-12T13:03:04;1.02;;;1.02;;
16689;SDS011;8458;52.220;9.884;2022-07-12T13:05:31;0.80;;;0.80;;
16689;SDS011;8458;52.220;9.884;2022-07-12T13:07:57;1.40;;;1.30;;
16689;SDS011;8458;52.220;9.884;2022-07-12T13:10:25;0.70;;;0.70;;
16689;SDS011;8458;52.220;9.884;2022-07-12T13:12:52;0.82;;;0.70;;
16689;SDS011;8458;52.220;9.884;2022-07-12T13:15:19;1.30;;;0.80;;
16689;SDS011;8458;52.220;9.884;2022-07-12T13:17:45;0.70;;;0.70;;
16689;SDS011;8458;52.220;9.884;2022-07-12T13:20:13;0.60;;;0.60;;
16689;SDS011;8458;52.220;9.884;2022-07-12T13:22:39;0.47;;;0.47;;
16689;SDS011;8458;52.220;9.884;2022-07-12T13:25:08;0.50;;;0.50;;
16689;SDS011;8458;52.220;9.884;2022-07-12T13:27:36;0.50;;;0.50;;
16689;SDS011;8458;52.220;9.884;2022-07-12T13:30:03;1.17;;;0.45;;
16689;SDS011;8458;52.220;9.884;2022-07-12T13:32:31;0.40;;;0.40;;
16689;SDS011;8458;52.220;9.884;2022-07-12T13:34:58;0.77;;;0.30;;
16689;SDS011;8458;52.220;9.884;2022-07-12T13:37:25;0.40;;;0.40;;
16689;SDS011;8458;52.220;9.884;2022-07-12T13:39:52;0.40;;;0.40;;
16689;SDS011;8458;52.220;9.884;2022-07-12T13:42:46;0.30;;;0.30;;
16689;SDS011;8458;52.220;9.884;2022-07-12T13:45:14;0.30;;;0.30;;
16689;SDS011;8458;52.220;9.884;2022-07-12T13:47:42;0.40;;;0.40;;
16689;SDS011;8458;52.220;9.884;2022-07-12T13:50:09;0.40;;;0.40;;
16689;SDS011;8458;52.220;9.884;2022-07-12T13:52:37;0.60;;;0.50;;
16689;SDS011;8458;52.220;9.884;2022-07-12T13:55:05;0.35;;;0.35;;
16689;SDS011;8458;52.220;9.884;2022-07-12T13:57:33;0.30;;;0.30;;
16689;SDS011;8458;52.220;9.884;2022-07-12T14:00:02;0.20;;;0.20;;
16689;SDS011;8458;52.220;9.884;2022-07-12T14:02:30;0.43;;;0.38;;
16689;SDS011;8458;52.220;9.884;2022-07-12T14:04:57;0.90;;;0.20;;
16689;SDS011;8458;52.220;9.884;2022-07-12T14:07:23;0.28;;;0.28;;
16689;SDS011;8458;52.220;9.884;2022-07-12T14:09:50;0.63;;;0.28;;
16689;SDS011;8458;52.220;9.884;2022-07-12T14:12:16;0.35;;;0.30;;
16689;SDS011;8458;52.220;9.884;2022-07-12T14:14:43;0.10;;;0.10;;
16689;SDS011;8458;52.220;9.884;2022-07-12T14:17:28;0.38;;;0.30;;
16689;SDS011;8458;52.220;9.884;2022-07-12T14:19:54;0.20;;;0.20;;
16689;SDS011;8458;52.220;9.884;2022-07-12T14:22:21;1.05;;;0.40;;
16689;SDS011;8458;52.220;9.884;2022-07-12T14:24:48;0.20;;;0.20;;
16689;SDS011;8458;52.220;9.884;2022-07-12T14:27:14;0.30;;;0.30;;
16689;SDS011;8458;52.220;9.884;2022-07-12T14:29:41;0.30;;;0.30;;
16689;SDS011;8458;52.220;9.884;2022-07-12T14:32:07;0.30;;;0.30;;
16689;SDS011;8458;52.220;9.884;2022-07-12T14:34:35;0.75;;;0.28;;
16689;SDS011;8458;52.220;9.884;2022-07-12T14:37:02;0.47;;;0.30;;
16689;SDS011;8458;52.220;9.884;2022-07-12T14:39:29;0.20;;;0.20;;
16689;SDS011;8458;52.220;9.884;2022-07-12T14:41:55;0.32;;;0.30;;
16689;SDS011;8458;52.220;9.884;2022-07-12T14:44:22;0.20;;;0.20;;
16689;SDS011;8458;52.220;9.884;2022-07-12T14:46:48;0.20;;;0.20;;
16689;SDS011;8458;52.220;9.884;2022-07-12T14:49:17;0.20;;;0.20;;
16689;SDS011;8458;52.220;9.884;2022-07-12T14:51:45;0.20;;;0.20;;
16689;SDS011;8458;52.220;9.884;2022-07-12T14:54:12;0.28;;;0.20;;
16689;SDS011;8458;52.220;9.884;2022-07-12T14:56:38;0.40;;;0.40;;
16689;SDS011;8458;52.220;9.884;2022-07-12T14:59:05;0.40;;;0.40;;
16689;SDS011;8458;52.220;9.884;2022-07-12T15:01:32;0.40;;;0.40;;
16689;SDS011;8458;52.220;9.884;2022-07-12T15:03:58;0.30;;;0.30;;
16689;SDS011;8458;52.220;9.884;2022-07-12T15:06:25;0.22;;;0.22;;
16689;SDS011;8458;52.220;9.884;2022-07-12T15:08:53;0.30;;;0.30;;
16689;SDS011;8458;52.220;9.884;2022-07-12T15:11:20;0.98;;;0.40;;
16689;SDS011;8458;52.220;9.884;2022-07-12T15:13:46;0.40;;;0.40;;